Flight Track Log - Related Links

Times and Time Zones

All times are in EDT time to prevent confusion due to time zone crossing. See the ASH3770 flight status page for this flight to view local times or setup timezone preferences in your user account.

Time Position Orientation Groundspeed Altitude Reporting Facility
EDT Latitude Longitude Course Direction KTS MPH feet Rate Location/Type
Sat 07:23:39 AM 29.5175 -98.4525 North 179 206 1,500  Level Houston Center
Sat 07:24:22 AM 29.4953 -98.4167 125° Southeast 201 231 2,800 1,814 Climbing Houston Center
Sat 07:25:05 AM 29.4981 -98.3689 86° East 223 257 4,100 1,846 Climbing Houston Center
Sat 07:26:00 AM 29.8678 -98.4221 North  Level FlightAware Approximate
Sat 07:26:06 AM 29.5517 -98.3508 16° North 225 259 6,000  Level Houston Center
Sat 07:27:00 AM 29.9795 -98.4064 11° North  Level FlightAware Approximate
Sat 07:27:06 AM 29.6167 -98.3742 343° North 248 285 7,700  Level Houston Center
Sat 07:28:00 AM 30.0903 -98.3833 North  Level FlightAware Approximate
Sat 07:28:07 AM 29.6925 -98.3817 355° North 281 323 9,400  Level Houston Center
Sat 07:29:00 AM 30.1998 -98.3620 North  Level FlightAware Approximate
Sat 07:29:08 AM 29.7781 -98.3839 359° North 285 328 11,800  Level Houston Center
Sat 07:30:08 AM 29.8594 -98.3856 359° North 293 337 13,400 1,736 Climbing Houston Center
Sat 07:31:09 AM 29.9444 -98.3719 North 305 351 15,300 1,672 Climbing Houston Center
Sat 07:32:10 AM 30.0281 -98.3392 19° North 315 362 16,800 1,475 Climbing Houston Center
Sat 07:33:11 AM 30.1144 -98.3050 19° North 328 377 18,300 1,438 Climbing Houston Center
Sat 07:34:11 AM 30.2042 -98.2692 19° North 341 392 19,700 1,537 Climbing Houston Center
Sat 07:35:12 AM 30.3022 -98.2294 19° North 347 399 21,400 1,377 Climbing Houston Center
Sat 07:36:13 AM 30.3861 -98.1986 18° North 354 407 22,500 1,140 Climbing Houston Center
Sat 07:37:13 AM 30.4819 -98.1594 19° North 359 413 23,700 1,091 Climbing Houston Center
Sat 07:38:14 AM 30.5819 -98.1200 19° North 371 427 24,700 1,082 Climbing Houston Center
Sat 07:39:15 AM 30.6839 -98.0794 19° North 379 436 25,900 1,033 Climbing Houston Center
Sat 07:40:16 AM 30.7864 -98.0389 19° North 382 440 26,800 793 Climbing Houston Center
Sat 07:41:16 AM 30.8928 -97.9972 19° North 392 451 27,500 694 Climbing Houston Center
Sat 07:42:17 AM 31.0031 -97.9525 19° North 408 470 28,200 689 Climbing Houston Center
Sat 07:43:18 AM 31.1150 -97.9083 19° North 416 479 28,900 826 Climbing Houston Center
Sat 07:44:06 AM 31.2125 -97.8725 17° North 410 472 29,700 889 Climbing Fort Worth Center
Sat 07:45:06 AM 31.3233 -97.8267 19° North 415 478 30,500 750 Climbing Fort Worth Center
Sat 07:46:06 AM 31.4319 -97.7811 20° North 415 478 31,200 700 Climbing Fort Worth Center
Sat 07:47:06 AM 31.5447 -97.7350 19° North 420 483 31,900 650 Climbing Fort Worth Center
Sat 07:48:06 AM 31.6450 -97.6964 18° North 425 489 32,500 550 Climbing Fort Worth Center
Sat 07:49:06 AM 31.7600 -97.6503 19° North 430 495 33,000 250 Climbing Fort Worth Center
Sat 07:50:06 AM 31.8708 -97.6042 19° North 425 489 33,000  Level Fort Worth Center
Sat 07:51:06 AM 31.9878 -97.5556 19° North 411 473 33,000  Level Fort Worth Center
Sat 07:52:06 AM 32.0881 -97.5139 19° North 411 473 33,000  Level Fort Worth Center
Sat 07:53:06 AM 32.2092 -97.4650 19° North 411 473 33,000  Level Fort Worth Center
Sat 07:54:06 AM 32.3114 -97.4208 20° North 417 480 33,000  Level Fort Worth Center
Sat 07:55:06 AM 32.4200 -97.3739 20° North 417 480 33,000  Level Fort Worth Center
Sat 07:56:06 AM 32.5306 -97.3297 19° North 417 480 33,000  Level Fort Worth Center
Sat 07:57:06 AM 32.6411 -97.2828 20° North 422 486 33,000  Level Fort Worth Center
Sat 07:58:06 AM 32.7497 -97.2381 19° North 422 486 33,000  Level Fort Worth Center
Sat 07:59:06 AM 32.8750 -97.1833 20° North 417 480 33,000  Level Fort Worth Center
Sat 08:00:06 AM 32.9792 -97.1164 28° Northeast 422 486 33,000  Level Fort Worth Center
Sat 08:01:06 AM 33.0750 -97.0489 31° Northeast 427 491 33,000  Level Fort Worth Center
Sat 08:02:06 AM 33.1750 -96.9792 30° Northeast 427 491 33,000  Level Fort Worth Center
Sat 08:03:06 AM 33.2728 -96.9092 31° Northeast 414 476 33,000  Level Fort Worth Center
Sat 08:04:06 AM 33.3706 -96.8289 34° Northeast 414 476 33,000  Level Fort Worth Center
Sat 08:05:06 AM 33.4683 -96.7486 34° Northeast 420 483 33,000  Level Fort Worth Center
Sat 08:06:06 AM 33.5658 -96.6681 35° Northeast 420 483 33,000  Level Fort Worth Center
Sat 08:07:06 AM 33.6614 -96.5875 35° Northeast 420 483 33,000 50 Level Fort Worth Center
Sat 08:08:06 AM 33.7569 -96.5067 35° Northeast 420 483 33,100 400 Climbing Fort Worth Center
Sat 08:09:06 AM 33.8544 -96.4256 35° Northeast 420 483 33,800 700 Climbing Fort Worth Center
Sat 08:10:06 AM 33.9519 -96.3469 34° Northeast 420 483 34,500 800 Climbing Fort Worth Center
Sat 08:11:06 AM 34.0472 -96.2681 34° Northeast 420 483 35,400 1,000 Climbing Fort Worth Center
Sat 08:12:06 AM 34.1319 -96.1917 37° Northeast 403 464 36,500 800 Climbing Fort Worth Center
Sat 08:13:06 AM 34.2208 -96.1150 35° Northeast 391 450 37,000 250 Climbing Fort Worth Center
Sat 08:14:06 AM 34.3139 -96.0381 34° Northeast 391 450 37,000  Level Fort Worth Center
Sat 08:15:06 AM 34.4050 -95.9586 36° Northeast 401 461 37,000  Level Fort Worth Center
Sat 08:16:06 AM 34.5000 -95.8789 35° Northeast 406 467 37,000  Level Fort Worth Center
Sat 08:17:06 AM 34.5928 -95.7967 36° Northeast 411 473 37,000  Level Fort Worth Center
Sat 08:18:06 AM 34.6897 -95.7164 34° Northeast 411 473 37,000  Level Fort Worth Center
Sat 08:19:06 AM 34.7825 -95.6364 35° Northeast 411 473 37,000  Level Fort Worth Center
Sat 08:21:14 AM 34.9925 -95.4619 34° Northeast 420 483 37,000  Level Memphis Center
Sat 08:22:14 AM 35.0878 -95.3817 35° Northeast 415 478 37,000  Level Memphis Center
Sat 08:23:14 AM 35.1806 -95.2981 36° Northeast 415 478 37,000  Level Memphis Center
Sat 08:24:14 AM 35.2736 -95.2172 35° Northeast 415 478 37,000  Level Memphis Center
Sat 08:25:14 AM 35.3664 -95.1361 35° Northeast 415 478 37,000  Level Memphis Center
Sat 08:26:14 AM 35.4592 -95.0522 36° Northeast 415 478 37,000  Level Memphis Center
Sat 08:27:14 AM 35.5519 -94.9706 36° Northeast 415 478 37,000  Level Memphis Center
Sat 08:28:14 AM 35.6489 -94.8867 35° Northeast 415 478 37,000  Level Memphis Center
Sat 08:29:14 AM 35.7458 -94.8025 35° Northeast 420 483 37,000  Level Memphis Center
Sat 08:30:14 AM 35.8386 -94.7153 37° Northeast 415 478 37,000 -200 Level Memphis Center
Sat 08:31:14 AM 35.9353 -94.6306 35° Northeast 415 478 36,600 -750 Descending Memphis Center
Sat 08:32:14 AM 36.0322 -94.5408 37° Northeast 415 478 35,500 -1,050 Descending Memphis Center
Sat 08:33:14 AM 36.1353 -94.4533 34° Northeast 426 490 34,500 -903 Descending Memphis Center
Sat 08:33:47 AM 36.1772 -94.4156 36° Northeast 443 510 34,100 -957 Descending Kansas City Center
Sat 08:34:48 AM 36.3019 -94.3019 36° Northeast 458 527 33,000 -541 Descending Kansas City Center
Sat 08:35:49 AM 36.4064 -94.2075 36° Northeast 463 533 33,000  Level Kansas City Center
Sat 08:36:51 AM 36.5092 -94.1164 35° Northeast 459 528 33,000  Level Kansas City Center
Sat 08:37:52 AM 36.6092 -94.0233 37° Northeast 453 521 33,000  Level Kansas City Center
Sat 08:38:53 AM 36.7108 -93.9306 36° Northeast 452 520 33,000  Level Kansas City Center
Sat 08:39:54 AM 36.8139 -93.8378 36° Northeast 455 524 33,000  Level Kansas City Center
Sat 08:40:55 AM 36.9175 -93.7406 37° Northeast 444 511 33,000  Level Kansas City Center
Sat 08:41:57 AM 37.0175 -93.6483 36° Northeast 444 511 33,000  Level Kansas City Center
Sat 08:42:58 AM 37.1189 -93.5547 36° Northeast 449 517 33,000  Level Kansas City Center
Sat 08:43:59 AM 37.2189 -93.4633 36° Northeast 446 513 33,000  Level Kansas City Center
Sat 08:45:00 AM 37.3164 -93.3708 37° Northeast 441 507 33,000  Level Kansas City Center
Sat 08:46:01 AM 37.4150 -93.2789 37° Northeast 439 505 33,000  Level Kansas City Center
Sat 08:47:03 AM 37.5156 -93.1872 36° Northeast 443 510 33,000  Level Kansas City Center
Sat 08:48:04 AM 37.6153 -93.0958 36° Northeast 442 509 33,000  Level Kansas City Center
Sat 08:49:05 AM 37.7156 -93.0000 37° Northeast 448 516 33,000  Level Kansas City Center
Sat 08:50:06 AM 37.8150 -92.9086 36° Northeast 442 509 33,000  Level Kansas City Center
Sat 08:51:08 AM 37.9336 -92.7967 37° Northeast 440 506 33,000  Level Kansas City Center
Sat 08:52:09 AM 38.0217 -92.7150 36° Northeast 440 506 33,000  Level Kansas City Center
Sat 08:53:10 AM 38.1206 -92.6228 36° Northeast 441 507 33,000  Level Kansas City Center
Sat 08:54:11 AM 38.2339 -92.5147 37° Northeast 441 507 33,000  Level Kansas City Center
Sat 08:55:13 AM 38.3336 -92.4203 37° Northeast 441 507 33,000  Level Kansas City Center
Sat 08:56:14 AM 38.4322 -92.3258 37° Northeast 439 505 33,000  Level Kansas City Center
Sat 08:57:15 AM 38.5311 -92.2317 37° Northeast 440 506 33,000  Level Kansas City Center
Sat 08:58:16 AM 38.6283 -92.1381 37° Northeast 437 503 33,000  Level Kansas City Center
Sat 08:59:18 AM 38.7269 -92.0439 37° Northeast 438 504 33,000  Level Kansas City Center
Sat 09:00:19 AM 38.8253 -91.9486 37° Northeast 440 506 33,000  Level Kansas City Center
Sat 09:01:20 AM 38.9231 -91.8525 37° Northeast 441 507 33,000  Level Kansas City Center
Sat 09:02:21 AM 39.0206 -91.7578 37° Northeast 440 506 33,000  Level Kansas City Center
Sat 09:03:22 AM 39.1181 -91.6625 37° Northeast 439 505 33,000  Level Kansas City Center
Sat 09:04:24 AM 39.2175 -91.5678 36° Northeast 440 506 33,000  Level Kansas City Center
Sat 09:05:25 AM 39.3153 -91.4719 37° Northeast 441 507 33,000  Level Kansas City Center
Sat 09:06:26 AM 39.4125 -91.3744 38° Northeast 442 509 33,000  Level Kansas City Center
Sat 09:07:27 AM 39.5119 -91.2772 37° Northeast 444 511 33,000  Level Kansas City Center
Sat 09:08:28 AM 39.6125 -91.1769 38° Northeast 450 518 33,000  Level Kansas City Center
Sat 09:09:29 AM 39.7128 -91.0769 37° Northeast 452 520 33,000  Level Kansas City Center
Sat 09:10:31 AM 39.8169 -90.9714 38° Northeast 452 520 33,000  Level Kansas City Center
Sat 09:11:32 AM 39.9178 -90.8717 37° Northeast 453 521 33,000  Level Kansas City Center
Sat 09:12:33 AM 40.0394 -90.7478 38° Northeast 460 529 33,000  Level Kansas City Center
Sat 09:13:34 AM 40.1392 -90.6461 38° Northeast 457 526 33,000  Level Kansas City Center
Sat 09:14:36 AM 40.2369 -90.5364 41° Northeast 462 532 33,000  Level Kansas City Center
Sat 09:15:37 AM 40.3253 -90.4103 47° Northeast 468 539 33,000 -197 Level Kansas City Center
Sat 09:16:38 AM 40.4133 -90.2872 47° Northeast 465 535 32,600 -984 Descending Kansas City Center
Sat 09:17:39 AM 40.5019 -90.1658 46° Northeast 462 532 31,000 -1,463 Descending Kansas City Center
Sat 09:18:41 AM 40.5803 -90.0547 47° Northeast 446 513 29,600 -1,415 Descending Kansas City Center
Sat 09:19:42 AM 40.6622 -89.9394 47° Northeast 437 503 28,100 -1,623 Descending Kansas City Center
Sat 09:20:43 AM 40.7631 -89.7956 47° Northeast 442 509 26,300 -1,531 Descending Kansas City Center
Sat 09:22:07 AM 40.8656 -89.6478 47° Northeast 438 504 24,400 -945 Descending Chicago Center
Sat 09:23:09 AM 40.9556 -89.5197 47° Northeast 435 501 24,000 -484 Descending Chicago Center
Sat 09:24:11 AM 41.0372 -89.4025 47° Northeast 433 498 23,400 -1,366 Descending Chicago Center
Sat 09:25:12 AM 41.1144 -89.2908 47° Northeast 417 480 21,200 -2,244 Descending Chicago Center
Sat 09:26:14 AM 41.1964 -89.1725 47° Northeast 404 465 18,800 -2,226 Descending Chicago Center
Sat 09:27:16 AM 41.2700 -89.0658 47° Northeast 395 455 16,600 -2,032 Descending Chicago Center
Sat 09:28:18 AM 41.3394 -88.9594 49° Northeast 386 444 14,600 -1,854 Descending Chicago Center
Sat 09:29:19 AM 41.4081 -88.8606 47° Northeast 369 425 12,800 -1,756 Descending Chicago Center
Sat 09:30:21 AM 41.4875 -88.7425 48° Northeast 358 412 11,000 -823 Descending Chicago Center
Sat 09:31:23 AM 41.5400 -88.6339 57° Northeast 356 410 11,100 48 Climbing Chicago Center
Sat 09:32:25 AM 41.5864 -88.5172 62° Northeast 358 412 11,100 -49 Level Chicago Center
Sat 09:33:26 AM 41.6417 -88.4083 56° Northeast 356 410 11,000 -49 Descending Chicago Center
Sat 09:34:28 AM 41.7031 -88.3044 52° Northeast 356 410 11,000  Level Chicago Center
Sat 09:35:30 AM 41.7639 -88.1992 52° Northeast 357 411 11,000  Level Chicago Center
Sat 09:36:32 AM 41.8247 -88.0953 52° Northeast 354 407 11,000 -390 Level Chicago Center
Sat 09:37:33 AM 41.8781 -87.9931 55° Northeast 334 384 10,200 -976 Descending Chicago Center
Sat 09:38:35 AM 41.8844 -87.8644 86° East 286 329 9,000 -581 Descending Chicago Center
Sat 09:39:37 AM 41.8833 -87.7558 91° East 289 333 9,000  Level Chicago Center
Sat 09:40:39 AM 41.8828 -87.6469 90° East 292 336 9,000 -780 Level Chicago Center
Sat 09:41:40 AM 41.8831 -87.5414 90° East 286 329 7,400 -1,122 Descending Chicago Center
Sat 09:42:42 AM 41.9142 -87.4658 61° Northeast 254 292 6,700 -677 Descending Chicago Center
Sat 09:43:44 AM 41.9728 -87.4858 346° North 234 269 6,000 -677 Descending Chicago Center
Sat 09:44:46 AM 41.9828 -87.5869 278° West 234 269 5,300 -1,073 Descending Chicago Center
Sat 09:45:47 AM 41.9839 -87.6692 271° West 227 261 3,800 -1,475 Descending Chicago Center

Login

Don't have an account? Register now (free) for customized features, flight alerts, and more!